createdAt,value
2022-12-08T00:01:07.461Z,91371.81
2022-12-08T00:03:34.481Z,91374.00
2022-12-08T00:06:20.501Z,91377.47
2022-12-08T00:09:05.941Z,91384.72
2022-12-08T00:11:32.634Z,91379.13
2022-12-08T00:13:59.268Z,91377.78
2022-12-08T00:16:26.108Z,91384.47
2022-12-08T00:18:52.804Z,91379.22
2022-12-08T00:21:19.518Z,91384.47
2022-12-08T00:23:46.193Z,91385.81
2022-12-08T00:26:12.794Z,91378.94
2022-12-08T00:28:39.489Z,91388.44
2022-12-08T00:31:10.102Z,91402.72
2022-12-08T00:33:38.137Z,91387.91
2022-12-08T00:36:08.754Z,91384.19
2022-12-08T00:38:36.361Z,91384.00
2022-12-08T00:41:03.729Z,91383.53
2022-12-08T00:43:30.467Z,91390.75
2022-12-08T00:45:57.458Z,91395.19
2022-12-08T00:48:24.240Z,91403.13
2022-12-08T00:50:50.853Z,91405.69
2022-12-08T00:53:17.701Z,91398.31
2022-12-08T00:55:44.328Z,91404.78
2022-12-08T00:58:10.965Z,91408.72
2022-12-08T01:00:37.613Z,91397.16
2022-12-08T01:03:04.339Z,91394.59
2022-12-08T01:05:31.142Z,91400.09
2022-12-08T01:07:57.779Z,91409.84
2022-12-08T01:10:24.449Z,91410.50
2022-12-08T01:12:51.120Z,91412.53
2022-12-08T01:15:17.750Z,91418.63
2022-12-08T01:17:44.390Z,91407.00
2022-12-08T01:20:11.400Z,91405.03
2022-12-08T01:22:38.082Z,91414.31
2022-12-08T01:25:04.993Z,91412.94
2022-12-08T01:27:31.660Z,91417.94
2022-12-08T01:29:58.288Z,91425.50
2022-12-08T01:32:24.933Z,91412.94
2022-12-08T01:34:51.596Z,91401.56
2022-12-08T01:37:18.286Z,91406.84
2022-12-08T01:39:44.964Z,91407.53
2022-12-08T01:42:20.432Z,91398.56
2022-12-08T01:44:52.621Z,91397.59
2022-12-08T01:47:19.269Z,91395.50
2022-12-08T01:49:45.961Z,91399.81
2022-12-08T01:52:21.724Z,91385.47
2022-12-08T01:54:51.441Z,91391.09
2022-12-08T01:57:27.595Z,91390.94
2022-12-08T01:59:57.918Z,91390.84
2022-12-08T02:02:24.610Z,91385.25
2022-12-08T02:04:51.358Z,91403.19
2022-12-08T02:07:17.980Z,91401.03
2022-12-08T02:09:44.619Z,91397.31
2022-12-08T02:12:11.254Z,91394.22
2022-12-08T02:14:37.918Z,91389.91
2022-12-08T02:17:35.583Z,91379.94
2022-12-08T02:20:23.991Z,91375.81
2022-12-08T02:23:18.280Z,91371.13
2022-12-08T02:26:29.872Z,91371.91
2022-12-08T02:29:09.414Z,91370.84
2022-12-08T02:31:57.794Z,91368.44
2022-12-08T02:34:35.054Z,91365.50
2022-12-08T02:37:08.177Z,91374.16
2022-12-08T02:40:20.698Z,91356.63
2022-12-08T02:43:13.292Z,91358.75
2022-12-08T02:45:43.583Z,91356.63
2022-12-08T02:48:10.189Z,91349.72
2022-12-08T02:50:36.894Z,91345.41
2022-12-08T02:55:49.010Z,91345.28
2022-12-08T02:58:21.539Z,91353.09
2022-12-08T03:01:01.642Z,91346.34
2022-12-08T03:03:40.330Z,91355.38
2022-12-08T03:06:09.784Z,91351.00
2022-12-08T03:08:44.652Z,91345.84
2022-12-08T03:11:25.249Z,91349.69
2022-12-08T03:13:53.553Z,91344.91
2022-12-08T03:16:25.821Z,91343.97
2022-12-08T03:19:26.806Z,91341.66
2022-12-08T03:22:00.439Z,91343.97
2022-12-08T03:24:27.191Z,91331.78
2022-12-08T03:26:59.617Z,91327.97
2022-12-08T03:29:26.254Z,91331.06
2022-12-08T03:31:55.718Z,91333.63
2022-12-08T03:34:23.379Z,91336.97
2022-12-08T03:36:50.064Z,91336.28
2022-12-08T03:39:16.758Z,91333.28
2022-12-08T03:41:43.460Z,91338.13
2022-12-08T03:44:10.265Z,91339.78
2022-12-08T03:46:36.926Z,91340.53
2022-12-08T03:49:03.560Z,91344.47
2022-12-08T03:51:30.165Z,91349.88
2022-12-08T03:53:57.019Z,91357.19
2022-12-08T03:56:30.770Z,91351.84
2022-12-08T03:58:57.362Z,91343.69
2022-12-08T04:01:24.214Z,91346.13
2022-12-08T04:03:51.062Z,91345.53
2022-12-08T04:06:17.710Z,91338.03
2022-12-08T04:08:44.436Z,91347.72
2022-12-08T04:11:11.073Z,91358.88
2022-12-08T04:13:38.528Z,91358.81
2022-12-08T04:16:05.620Z,91367.75
2022-12-08T04:18:32.979Z,91363.00
2022-12-08T04:20:59.646Z,91359.81
2022-12-08T04:23:26.248Z,91353.31
2022-12-08T04:25:53.107Z,91363.56
2022-12-08T04:28:19.816Z,91360.56
2022-12-08T04:30:48.262Z,91364.84
2022-12-08T04:33:15.092Z,91362.91
2022-12-08T04:35:41.714Z,91370.66
2022-12-08T04:38:08.406Z,91370.78
2022-12-08T04:40:35.118Z,91372.97
2022-12-08T04:43:01.720Z,91378.69
2022-12-08T04:45:28.413Z,91372.22
2022-12-08T04:47:55.036Z,91376.69
2022-12-08T04:50:21.675Z,91373.94
2022-12-08T04:52:48.430Z,91379.00
2022-12-08T04:55:15.203Z,91372.19
2022-12-08T04:57:41.880Z,91376.78
2022-12-08T05:00:08.869Z,91382.25
2022-12-08T05:02:35.974Z,91371.09
2022-12-08T05:05:02.676Z,91370.22
2022-12-08T05:07:29.421Z,91382.03
2022-12-08T05:09:56.093Z,91383.72
2022-12-08T05:12:22.698Z,91385.38
2022-12-08T05:14:49.405Z,91384.06
2022-12-08T05:17:17.213Z,91382.66
2022-12-08T05:19:43.933Z,91394.91
2022-12-08T05:22:10.522Z,91378.06
2022-12-08T05:24:38.054Z,91387.84
2022-12-08T05:27:07.076Z,91381.38
2022-12-08T05:29:33.762Z,91383.81
2022-12-08T05:32:00.489Z,91391.41
2022-12-08T05:34:27.241Z,91387.44
2022-12-08T05:36:53.873Z,91395.78
2022-12-08T05:39:20.515Z,91393.59
2022-12-08T05:41:47.162Z,91396.78
2022-12-08T05:44:13.886Z,91401.75
2022-12-08T05:46:40.586Z,91384.56
2022-12-08T05:49:07.293Z,91392.28
2022-12-08T05:51:33.923Z,91389.63
2022-12-08T05:54:00.507Z,91392.41
2022-12-08T05:56:27.174Z,91401.38
2022-12-08T05:58:54.007Z,91406.19
2022-12-08T06:01:25.724Z,91403.41
2022-12-08T06:03:52.517Z,91394.78
2022-12-08T06:06:19.397Z,91410.44
2022-12-08T06:08:46.180Z,91405.59
2022-12-08T06:11:23.454Z,91403.06
2022-12-08T06:13:50.197Z,91414.13
2022-12-08T06:16:17.139Z,91408.66
2022-12-08T06:18:44.186Z,91411.75
2022-12-08T06:21:11.877Z,91414.06
2022-12-08T06:23:38.596Z,91409.94
2022-12-08T06:26:10.073Z,91412.78
2022-12-08T06:28:36.866Z,91416.47
2022-12-08T06:31:11.080Z,91415.41
2022-12-08T06:33:37.986Z,91423.69
2022-12-08T06:36:05.766Z,91416.59
2022-12-08T06:38:32.494Z,91415.88
2022-12-08T06:40:59.376Z,91419.75
2022-12-08T06:43:26.539Z,91412.56
2022-12-08T06:45:53.523Z,91418.84
2022-12-08T06:48:20.292Z,91423.94
2022-12-08T06:50:46.931Z,91427.34
2022-12-08T06:53:14.953Z,91411.69
2022-12-08T06:55:59.164Z,91415.34
2022-12-08T06:58:26.373Z,91420.31
2022-12-08T07:00:53.726Z,91430.16
2022-12-08T07:03:20.672Z,91429.41
2022-12-08T07:05:47.433Z,91431.25
2022-12-08T07:08:14.285Z,91429.44
2022-12-08T07:10:41.012Z,91426.91
2022-12-08T07:13:07.687Z,91430.41
2022-12-08T07:15:34.331Z,91435.00
2022-12-08T07:18:01.020Z,91428.78
2022-12-08T07:20:27.884Z,91432.47
2022-12-08T07:22:54.515Z,91438.25
2022-12-08T07:25:21.208Z,91432.03
2022-12-08T07:27:47.963Z,91425.34
2022-12-08T07:30:15.069Z,91437.28
2022-12-08T07:32:41.827Z,91438.63
2022-12-08T07:35:10.218Z,91441.00
2022-12-08T07:37:37.635Z,91436.31
2022-12-08T07:40:06.116Z,91443.06
2022-12-08T07:42:33.146Z,91431.41
2022-12-08T07:44:59.761Z,91431.13
2022-12-08T07:47:26.505Z,91435.25
2022-12-08T07:49:53.074Z,91446.66
2022-12-08T07:52:19.703Z,91445.66
2022-12-08T07:54:47.002Z,91446.19
2022-12-08T07:57:13.651Z,91450.31
2022-12-08T07:59:40.312Z,91445.41
2022-12-08T08:02:24.102Z,91442.00
2022-12-08T08:04:51.950Z,91447.44
2022-12-08T08:07:18.652Z,91447.97
2022-12-08T08:09:45.913Z,91443.53
2022-12-08T08:12:33.255Z,91440.38
2022-12-08T08:15:00.249Z,91444.69
2022-12-08T08:17:27.069Z,91448.31
2022-12-08T08:19:53.799Z,91434.56
2022-12-08T08:22:20.519Z,91434.47
2022-12-08T08:24:47.173Z,91446.34
2022-12-08T08:27:14.032Z,91454.63
2022-12-08T08:29:40.744Z,91449.38
2022-12-08T08:32:07.309Z,91456.03
2022-12-08T08:34:34.001Z,91444.56
2022-12-08T08:37:00.695Z,91440.94
2022-12-08T08:39:27.618Z,91442.91
2022-12-08T08:41:54.236Z,91442.28
2022-12-08T08:44:20.799Z,91438.28
2022-12-08T08:46:47.648Z,91431.59
2022-12-08T08:49:14.293Z,91422.09
2022-12-08T08:51:40.977Z,91420.25
2022-12-08T08:54:07.578Z,91409.19
2022-12-08T08:56:34.219Z,91403.34
2022-12-08T08:59:01.802Z,91401.16
2022-12-08T09:01:28.740Z,91399.88
2022-12-08T09:03:56.009Z,91397.88
2022-12-08T09:06:23.332Z,91392.06
2022-12-08T09:08:50.370Z,91395.25
2022-12-08T09:11:18.690Z,91398.09
2022-12-08T09:13:48.439Z,91394.00
2022-12-08T09:16:15.067Z,91397.41
2022-12-08T09:18:42.003Z,91386.22
2022-12-08T09:21:13.075Z,91383.22
2022-12-08T09:23:39.913Z,91380.38
2022-12-08T09:26:06.551Z,91383.84
2022-12-08T09:28:33.249Z,91375.88
2022-12-08T09:31:00.289Z,91363.97
2022-12-08T09:33:27.101Z,91360.22
2022-12-08T09:35:53.709Z,91367.03
2022-12-08T09:38:20.400Z,91353.03
2022-12-08T09:40:51.760Z,91352.63
2022-12-08T09:43:43.236Z,91354.50
2022-12-08T09:46:10.827Z,91355.84
2022-12-08T09:48:43.570Z,91367.25
2022-12-08T09:51:10.265Z,91352.69
2022-12-08T09:53:42.498Z,91354.63
2022-12-08T09:56:14.862Z,91348.84
2022-12-08T09:59:08.673Z,91350.50
2022-12-08T10:01:42.062Z,91342.09
2022-12-08T10:04:14.835Z,91335.19
2022-12-08T10:06:45.143Z,91336.31
2022-12-08T10:09:30.068Z,91338.81
2022-12-08T10:12:20.337Z,91324.47
2022-12-08T10:15:24.429Z,91327.59
2022-12-08T10:17:53.853Z,91321.69
2022-12-08T10:20:23.422Z,91318.28
2022-12-08T10:22:53.341Z,91316.31
2022-12-08T10:25:31.609Z,91306.25
2022-12-08T10:27:58.217Z,91311.19
2022-12-08T10:30:24.970Z,91315.03
2022-12-08T10:32:52.309Z,91310.84
2022-12-08T10:35:20.456Z,91301.25
2022-12-08T10:38:10.120Z,91300.75
2022-12-08T10:40:42.163Z,91291.94
2022-12-08T10:43:18.127Z,91294.13
2022-12-08T10:45:45.060Z,91300.94
2022-12-08T10:48:16.162Z,91295.94
2022-12-08T10:50:58.865Z,91283.97
2022-12-08T10:53:29.812Z,91285.72
2022-12-08T10:56:02.372Z,91282.34
2022-12-08T10:58:34.123Z,91280.97
2022-12-08T11:01:25.911Z,91283.03
2022-12-08T11:03:56.867Z,91279.16
2022-12-08T11:06:33.175Z,91268.91
2022-12-08T11:09:05.545Z,91273.94
2022-12-08T11:12:01.000Z,91276.09
2022-12-08T11:14:44.072Z,91276.84
2022-12-08T11:17:13.374Z,91271.56
2022-12-08T11:19:42.318Z,91265.50
2022-12-08T11:22:32.360Z,91261.56
2022-12-08T11:25:07.844Z,91265.31
2022-12-08T11:27:36.801Z,91269.06
2022-12-08T11:30:12.603Z,91263.94
2022-12-08T11:32:47.735Z,91258.84
2022-12-08T11:35:32.708Z,91263.91
2022-12-08T11:38:21.243Z,91256.94
2022-12-08T11:40:50.695Z,91259.09
2022-12-08T11:43:23.460Z,91253.31
2022-12-08T11:45:52.007Z,91253.75
2022-12-08T11:48:22.289Z,91249.88
2022-12-08T11:51:11.082Z,91251.84
2022-12-08T11:54:07.492Z,91249.22
2022-12-08T11:56:36.746Z,91257.19
2022-12-08T11:59:27.117Z,91251.75
2022-12-08T12:01:53.793Z,91255.78
2022-12-08T12:04:22.380Z,91256.22
2022-12-08T12:06:56.030Z,91249.78
2022-12-08T12:09:53.366Z,91245.97
2022-12-08T12:12:27.672Z,91250.97
2022-12-08T12:15:16.935Z,91256.84
2022-12-08T12:18:16.754Z,91244.50
2022-12-08T12:21:18.401Z,91251.59
2022-12-08T12:23:48.111Z,91252.78
2022-12-08T12:26:22.935Z,91251.06
2022-12-08T12:28:49.922Z,91247.16
2022-12-08T12:31:17.112Z,91254.97
2022-12-08T12:33:44.168Z,91258.31
2022-12-08T12:36:10.831Z,91255.84
2022-12-08T12:38:58.338Z,91255.84
2022-12-08T12:41:52.947Z,91251.63
2022-12-08T12:44:19.537Z,91248.84
2022-12-08T12:46:46.114Z,91261.56
2022-12-08T12:49:40.410Z,91245.63
2022-12-08T12:52:15.932Z,91242.97
2022-12-08T12:55:11.656Z,91245.38
2022-12-08T12:57:54.259Z,91241.66
2022-12-08T13:00:25.553Z,91246.81
2022-12-08T13:02:56.084Z,91247.47
2022-12-08T13:05:25.127Z,91254.47
2022-12-08T13:08:08.621Z,91241.84
2022-12-08T13:10:39.198Z,91246.72
2022-12-08T13:13:07.137Z,91248.53
2022-12-08T13:15:40.613Z,91252.13
2022-12-08T13:18:19.249Z,91257.19
2022-12-08T13:20:55.475Z,91255.81
2022-12-08T13:23:37.207Z,91258.72
2022-12-08T13:26:17.305Z,91257.44
2022-12-08T13:28:59.324Z,91262.41
2022-12-08T13:31:48.283Z,91260.59
2022-12-08T13:34:45.287Z,91266.94
2022-12-08T13:37:11.945Z,91264.19
2022-12-08T13:39:55.516Z,91270.09
2022-12-08T13:42:22.367Z,91270.69
2022-12-08T13:45:36.250Z,91265.63
2022-12-08T13:49:31.995Z,91264.41
2022-12-08T13:57:10.701Z,91260.69
2022-12-08T13:59:43.439Z,91270.13
2022-12-08T14:02:33.326Z,91271.81
2022-12-08T14:07:47.453Z,91267.81
2022-12-08T14:10:25.374Z,91276.59
2022-12-08T14:12:57.362Z,91270.03
2022-12-08T14:15:24.442Z,91266.19
2022-12-08T14:17:55.544Z,91269.59
2022-12-08T14:20:30.032Z,91267.69
2022-12-08T14:22:56.834Z,91269.91
2022-12-08T14:25:24.758Z,91283.44
2022-12-08T14:27:51.375Z,91277.38
2022-12-08T14:30:24.891Z,91288.25
2022-12-08T14:32:54.219Z,91282.16
2022-12-08T14:35:30.789Z,91280.63
2022-12-08T14:38:02.105Z,91289.31
2022-12-08T14:40:41.919Z,91280.19
2022-12-08T14:43:17.530Z,91271.63
2022-12-08T14:45:44.202Z,91275.16
2022-12-08T14:48:36.196Z,91284.78
2022-12-08T14:51:21.229Z,91295.16
2022-12-08T14:54:00.669Z,91298.28
2022-12-08T14:56:52.182Z,91289.59
2022-12-08T14:59:37.799Z,91289.69
2022-12-08T15:02:10.597Z,91281.78
2022-12-08T15:04:37.935Z,91283.94
2022-12-08T15:07:08.025Z,91283.44
2022-12-08T15:09:34.646Z,91273.56
2022-12-08T15:12:02.651Z,91278.81
2022-12-08T15:14:32.216Z,91281.53
2022-12-08T15:16:58.964Z,91280.44
2022-12-08T15:19:28.589Z,91286.38
2022-12-08T15:21:59.984Z,91292.78
2022-12-08T15:24:27.604Z,91295.75
2022-12-08T15:26:54.290Z,91301.41
2022-12-08T15:29:25.869Z,91291.94
2022-12-08T15:31:54.476Z,91291.25
2022-12-08T15:34:21.307Z,91290.34
2022-12-08T15:36:51.497Z,91299.88
2022-12-08T15:39:18.043Z,91300.44
2022-12-08T15:41:44.709Z,91293.94
2022-12-08T15:44:11.462Z,91295.97
2022-12-08T15:46:38.155Z,91304.13
2022-12-08T15:49:05.496Z,91313.81
2022-12-08T15:51:36.520Z,91326.91
2022-12-08T15:54:03.086Z,91315.41
2022-12-08T15:56:29.750Z,91314.59
2022-12-08T15:58:57.560Z,91308.31
2022-12-08T16:01:24.839Z,91318.47
2022-12-08T16:09:38.972Z,91314.91
2022-12-08T16:16:02.997Z,91335.50
2022-12-08T16:18:24.044Z,91331.44
2022-12-08T16:21:13.912Z,91331.06
2022-12-08T16:23:45.514Z,91327.00
2022-12-08T16:26:35.411Z,91322.94
2022-12-08T16:29:00.874Z,91321.19
2022-12-08T16:31:27.628Z,91322.53
2022-12-08T16:33:54.313Z,91322.31
2022-12-08T16:36:21.057Z,91325.53
2022-12-08T16:38:47.761Z,91325.19
2022-12-08T16:41:33.500Z,91325.50
2022-12-08T16:44:04.144Z,91321.84
2022-12-08T16:46:30.916Z,91321.69
2022-12-08T16:48:59.068Z,91321.84
2022-12-08T16:51:27.334Z,91316.13
2022-12-08T16:53:55.133Z,91320.16
2022-12-08T16:56:23.349Z,91317.44
2022-12-08T16:58:53.058Z,91315.94
2022-12-08T17:01:19.932Z,91321.03
2022-12-08T17:04:07.116Z,91327.81
2022-12-08T17:06:33.581Z,91334.91
2022-12-08T17:09:00.253Z,91333.72
2022-12-08T17:11:28.411Z,91330.44
2022-12-08T17:13:55.020Z,91337.22
2022-12-08T17:16:21.951Z,91347.41
2022-12-08T17:18:48.717Z,91340.16
2022-12-08T17:21:16.435Z,91346.94
2022-12-08T17:23:43.672Z,91342.47
2022-12-08T17:26:10.392Z,91335.06
2022-12-08T17:28:59.414Z,91332.44
2022-12-08T17:31:29.329Z,91332.88
2022-12-08T17:34:04.927Z,91331.44
2022-12-08T17:36:31.876Z,91329.41
2022-12-08T17:38:58.887Z,91328.63
2022-12-08T17:41:25.684Z,91333.09
2022-12-08T17:43:52.290Z,91339.84
2022-12-08T17:46:19.328Z,91342.19
2022-12-08T17:48:46.202Z,91334.53
2022-12-08T17:51:12.916Z,91335.72
2022-12-08T17:53:42.525Z,91332.28
2022-12-08T17:56:17.336Z,91328.06
2022-12-08T17:58:44.908Z,91331.78
2022-12-08T18:01:12.527Z,91330.53
2022-12-08T18:03:39.282Z,91318.81
2022-12-08T18:06:09.983Z,91331.16
2022-12-08T18:08:36.982Z,91336.34
2022-12-08T18:11:04.008Z,91317.25
2022-12-08T18:13:30.730Z,91317.13
2022-12-08T18:15:57.427Z,91315.88
2022-12-08T18:18:24.089Z,91318.03
2022-12-08T18:20:50.846Z,91327.00
2022-12-08T18:23:17.840Z,91314.81
2022-12-08T18:25:45.089Z,91313.97
2022-12-08T18:28:11.770Z,91318.41
2022-12-08T18:30:39.577Z,91310.72
2022-12-08T18:33:06.945Z,91322.69
2022-12-08T18:35:33.668Z,91319.00
2022-12-08T18:38:00.655Z,91331.75
2022-12-08T18:40:28.124Z,91334.38
2022-12-08T18:42:54.813Z,91339.66
2022-12-08T18:45:22.866Z,91333.63
2022-12-08T18:47:50.457Z,91341.38
2022-12-08T18:50:17.296Z,91348.97
2022-12-08T18:52:45.123Z,91358.41
2022-12-08T18:55:11.826Z,91375.25
2022-12-08T18:57:39.006Z,91368.84
2022-12-08T19:00:06.945Z,91358.97
2022-12-08T19:02:34.049Z,91362.81
2022-12-08T19:05:01.356Z,91358.63
2022-12-08T19:07:28.066Z,91359.34
2022-12-08T19:09:56.103Z,91373.25
2022-12-08T19:12:22.837Z,91368.53
2022-12-08T19:14:49.646Z,91375.41
2022-12-08T19:17:16.312Z,91357.19
2022-12-08T19:19:43.053Z,91361.97
2022-12-08T19:22:09.720Z,91361.53
2022-12-08T19:24:36.774Z,91368.44
2022-12-08T19:27:04.328Z,91358.53
2022-12-08T19:29:31.034Z,91350.66
2022-12-08T19:31:57.789Z,91367.38
2022-12-08T19:34:24.535Z,91368.47
2022-12-08T19:36:51.231Z,91366.41
2022-12-08T19:39:38.053Z,91364.97
2022-12-08T19:42:34.426Z,91381.28
2022-12-08T19:45:05.351Z,91371.88
2022-12-08T19:47:32.155Z,91370.84
2022-12-08T19:50:17.285Z,91370.53
2022-12-08T19:52:44.262Z,91362.56
2022-12-08T19:55:11.740Z,91365.75
2022-12-08T19:57:38.548Z,91368.16
2022-12-08T20:00:08.599Z,91365.53
2022-12-08T20:02:36.739Z,91367.25
2022-12-08T20:05:04.976Z,91374.41
2022-12-08T20:07:31.751Z,91372.44
2022-12-08T20:09:58.449Z,91372.78
2022-12-08T20:12:25.131Z,91376.44
2022-12-08T20:14:52.589Z,91386.94
2022-12-08T20:17:19.537Z,91388.41
2022-12-08T20:19:46.265Z,91386.81
2022-12-08T20:22:12.929Z,91390.22
2022-12-08T20:24:39.518Z,91400.13
2022-12-08T20:27:06.213Z,91409.56
2022-12-08T20:29:33.148Z,91417.25
2022-12-08T20:31:59.776Z,91413.34
2022-12-08T20:34:26.649Z,91414.19
2022-12-08T20:36:53.262Z,91411.75
2022-12-08T20:39:19.879Z,91418.06
2022-12-08T20:41:46.754Z,91416.66
2022-12-08T20:44:13.377Z,91405.41
2022-12-08T20:46:41.839Z,91404.44
2022-12-08T20:49:11.694Z,91417.25
2022-12-08T20:51:38.404Z,91411.63
2022-12-08T20:54:05.521Z,91409.31
2022-12-08T20:56:32.760Z,91404.38
2022-12-08T20:58:59.820Z,91413.31
2022-12-08T21:01:26.538Z,91399.78
2022-12-08T21:03:53.729Z,91409.31
2022-12-08T21:06:22.528Z,91403.19
2022-12-08T21:08:49.799Z,91401.47
2022-12-08T21:11:16.799Z,91405.13
2022-12-08T21:13:43.497Z,91405.78
2022-12-08T21:16:13.748Z,91411.09
2022-12-08T21:18:41.017Z,91419.72
2022-12-08T21:21:09.773Z,91419.34
2022-12-08T21:23:36.605Z,91408.19
2022-12-08T21:26:03.602Z,91426.28
2022-12-08T21:28:30.382Z,91413.41
2022-12-08T21:30:57.375Z,91418.28
2022-12-08T21:33:24.244Z,91416.78
2022-12-08T21:35:51.070Z,91419.09
2022-12-08T21:38:17.801Z,91411.59
2022-12-08T21:40:44.538Z,91413.41
2022-12-08T21:43:12.136Z,91409.88
2022-12-08T21:45:38.865Z,91408.63
2022-12-08T21:48:10.892Z,91399.44
2022-12-08T21:50:38.006Z,91393.75
2022-12-08T21:53:04.911Z,91399.84
2022-12-08T21:55:31.607Z,91389.84
2022-12-08T21:58:00.998Z,91406.63
2022-12-08T22:00:28.079Z,91398.91
2022-12-08T22:02:55.119Z,91397.19
2022-12-08T22:05:22.091Z,91403.72
2022-12-08T22:07:48.941Z,91412.00
2022-12-08T22:10:15.761Z,91400.63
2022-12-08T22:12:42.624Z,91399.47
2022-12-08T22:15:10.302Z,91402.81
2022-12-08T22:17:38.146Z,91395.22
2022-12-08T22:20:06.957Z,91394.34
2022-12-08T22:22:34.930Z,91399.84
2022-12-08T22:25:02.444Z,91399.06
2022-12-08T22:27:29.355Z,91398.13
2022-12-08T22:29:56.036Z,91405.63
2022-12-08T22:32:22.799Z,91408.25
2022-12-08T22:34:49.445Z,91407.66
2022-12-08T22:37:16.167Z,91409.81
2022-12-08T22:39:42.824Z,91406.91
2022-12-08T22:42:09.405Z,91405.56
2022-12-08T22:44:36.089Z,91404.34
2022-12-08T22:47:02.841Z,91409.53
2022-12-08T22:49:29.545Z,91406.91
2022-12-08T22:51:56.334Z,91405.75
2022-12-08T22:54:23.123Z,91409.75
2022-12-08T22:56:49.859Z,91413.34
2022-12-08T22:59:16.573Z,91409.28
2022-12-08T23:01:43.360Z,91413.72
2022-12-08T23:04:17.249Z,91417.75
2022-12-08T23:06:44.734Z,91411.84
2022-12-08T23:09:11.994Z,91423.44
2022-12-08T23:11:38.765Z,91422.94
2022-12-08T23:14:05.445Z,91411.66
2022-12-08T23:16:33.561Z,91406.44
2022-12-08T23:19:00.445Z,91404.88
2022-12-08T23:21:27.273Z,91407.72
2022-12-08T23:23:54.246Z,91409.06
2022-12-08T23:26:25.084Z,91414.97
2022-12-08T23:28:51.940Z,91402.06
2022-12-08T23:31:18.890Z,91417.09
2022-12-08T23:33:45.695Z,91412.75
2022-12-08T23:36:12.794Z,91408.75
2022-12-08T23:38:39.563Z,91420.94
2022-12-08T23:41:07.262Z,91422.69
2022-12-08T23:43:34.245Z,91416.03
2022-12-08T23:46:01.005Z,91407.03
2022-12-08T23:48:28.893Z,91408.56
2022-12-08T23:50:57.172Z,91417.22
2022-12-08T23:53:23.968Z,91414.97
2022-12-08T23:55:50.648Z,91424.25
2022-12-08T23:58:17.349Z,91422.66
